KPUW/PUW METAR and TAF weather

Enter ICAO airport designator
Station Type Date Time Source
KPUW METAR 2022/10/01 07:53 UTC NOAA

KPUW 010753Z AUTO 00000KT 10SM SCT075 09/08 A3013 RMK AO2 SLP204 T00940083 401890083


Station Type Date Time Source
KPUW Decoded METAR 2022/10/01 07:53 UTC NOAA

PULLMAN/MOSCOW RGNL AIRPORT , WA, United States (KPUW) 46-45N 117-07W 773M
Oct 01, 2022 - 03:53 AM EDT / 2022.10.01 0753 UTC
Wind: Calm:0
Visibility: 10 mile(s):0
Sky conditions: partly cloudy
Temperature: 48.9 F (9.4 C)
Dew Point: 46.9 F (8.3 C)
Relative Humidity: 92%
Pressure (altimeter): 30.13 in. Hg (1020 hPa)
ob: KPUW 010753Z AUTO 00000KT 10SM SCT075 09/08 A3013 RMK AO2 SLP204 T00940083 401890083
cycle: 8

Station Type Date Time Source
KPUW TAF 2022/10/01 06:22 UTC NOAA

TAF KPUW 010520Z 0106/0206 00000KT P6SM SKC
FM011600 11007KT P6SM SKC
FM012200 VRB04KT P6SM SKC

Example: see airport list